createdAt,value
2022-08-30T00:01:06.784Z,17.60
2022-08-30T00:03:43.628Z,17.61
2022-08-30T00:06:17.922Z,17.66
2022-08-30T00:08:51.043Z,17.65
2022-08-30T00:11:25.143Z,17.64
2022-08-30T00:13:59.945Z,17.66
2022-08-30T00:16:32.138Z,17.66
2022-08-30T00:19:04.160Z,17.67
2022-08-30T00:21:35.981Z,17.70
2022-08-30T00:24:08.976Z,17.74
2022-08-30T00:26:40.838Z,17.76
2022-08-30T00:29:12.764Z,17.75
2022-08-30T00:31:44.681Z,17.76
2022-08-30T00:34:18.699Z,17.79
2022-08-30T00:36:50.801Z,17.79
2022-08-30T00:39:22.681Z,17.84
2022-08-30T00:41:54.633Z,17.87
2022-08-30T00:44:27.497Z,17.90
2022-08-30T00:46:59.412Z,17.93
2022-08-30T00:49:32.150Z,17.88
2022-08-30T00:52:05.282Z,17.83
2022-08-30T00:54:41.402Z,17.84
2022-08-30T00:57:15.677Z,17.89
2022-08-30T00:59:49.554Z,17.96
2022-08-30T01:02:23.861Z,17.95
2022-08-30T01:04:58.386Z,17.90
2022-08-30T01:07:30.261Z,17.88
2022-08-30T01:10:02.420Z,17.84
2022-08-30T01:12:34.609Z,17.81
2022-08-30T01:15:15.379Z,17.79
2022-08-30T01:17:49.982Z,17.75
2022-08-30T01:20:35.932Z,17.72
2022-08-30T01:23:17.118Z,17.71
2022-08-30T01:25:51.214Z,17.71
2022-08-30T01:28:25.976Z,17.67
2022-08-30T01:31:01.246Z,17.66
2022-08-30T01:33:33.531Z,17.64
2022-08-30T01:36:10.901Z,17.63
2022-08-30T01:38:47.532Z,17.60
2022-08-30T01:41:26.127Z,17.57
2022-08-30T01:44:00.034Z,17.52
2022-08-30T01:46:36.203Z,17.47
2022-08-30T01:49:11.409Z,17.42
2022-08-30T01:51:46.817Z,17.36
2022-08-30T01:54:18.678Z,17.33
2022-08-30T01:56:51.427Z,17.18
2022-08-30T01:59:23.223Z,17.06
2022-08-30T02:01:56.943Z,17.01
2022-08-30T02:04:28.802Z,17.04
2022-08-30T02:07:01.542Z,17.07
2022-08-30T02:09:33.558Z,17.12
2022-08-30T02:12:10.744Z,17.18
2022-08-30T02:14:42.757Z,17.27
2022-08-30T02:17:16.466Z,17.32
2022-08-30T02:19:48.584Z,17.34
2022-08-30T02:22:24.365Z,17.34
2022-08-30T02:24:56.172Z,17.34
2022-08-30T02:27:28.453Z,17.34
2022-08-30T02:30:00.286Z,17.36
2022-08-30T02:32:34.740Z,17.37
2022-08-30T02:35:09.070Z,17.42
2022-08-30T02:37:41.210Z,17.42
2022-08-30T02:40:16.257Z,17.42
2022-08-30T02:42:49.779Z,17.42
2022-08-30T02:45:21.827Z,17.44
2022-08-30T02:47:53.898Z,17.46
2022-08-30T02:50:25.865Z,17.43
2022-08-30T02:52:58.907Z,17.40
2022-08-30T02:55:30.986Z,17.36
2022-08-30T02:58:03.002Z,17.35
2022-08-30T03:00:35.070Z,17.36
2022-08-30T03:03:09.305Z,17.38
2022-08-30T03:05:41.365Z,17.39
2022-08-30T03:08:15.029Z,17.37
2022-08-30T03:10:47.087Z,17.35
2022-08-30T03:13:20.559Z,17.33
2022-08-30T03:15:52.885Z,17.28
2022-08-30T03:18:25.556Z,17.25
2022-08-30T03:20:57.994Z,17.21
2022-08-30T03:23:31.126Z,17.20
2022-08-30T03:26:03.038Z,17.19
2022-08-30T03:28:35.555Z,17.17
2022-08-30T03:31:07.759Z,17.18
2022-08-30T03:33:42.259Z,17.18
2022-08-30T03:36:14.537Z,17.16
2022-08-30T03:38:46.461Z,17.12
2022-08-30T03:41:18.411Z,17.08
2022-08-30T03:43:51.077Z,17.09
2022-08-30T03:46:23.194Z,17.11
2022-08-30T03:49:00.514Z,17.08
2022-08-30T03:51:33.264Z,17.06
2022-08-30T03:54:06.084Z,17.04
2022-08-30T03:56:37.834Z,17.05
2022-08-30T03:59:09.710Z,17.10
2022-08-30T04:01:42.160Z,17.11
2022-08-30T04:04:18.752Z,17.11
2022-08-30T04:06:52.983Z,17.15
2022-08-30T04:09:25.319Z,17.16
2022-08-30T04:11:57.271Z,17.16
2022-08-30T04:14:29.416Z,17.16
2022-08-30T04:17:01.449Z,17.18
2022-08-30T04:19:33.483Z,17.24
2022-08-30T04:22:06.213Z,17.25
2022-08-30T04:24:39.352Z,17.22
2022-08-30T04:27:11.877Z,17.22
2022-08-30T04:29:44.817Z,17.23
2022-08-30T04:32:17.231Z,17.25
2022-08-30T04:34:49.097Z,17.26
2022-08-30T04:37:21.825Z,17.31
2022-08-30T04:39:57.101Z,17.39
2022-08-30T04:42:31.684Z,17.45
2022-08-30T04:45:06.034Z,17.48
2022-08-30T04:47:39.251Z,17.54
2022-08-30T04:50:20.811Z,17.57
2022-08-30T04:52:52.632Z,17.59
2022-08-30T04:55:25.634Z,17.64
2022-08-30T04:57:57.730Z,17.66
2022-08-30T05:00:32.841Z,17.67
2022-08-30T05:03:06.596Z,17.71
2022-08-30T05:05:42.166Z,17.79
2022-08-30T05:08:24.351Z,17.86
2022-08-30T05:10:59.106Z,17.93
2022-08-30T05:13:35.564Z,18.01
2022-08-30T05:16:10.668Z,17.97
2022-08-30T05:18:42.569Z,17.92
2022-08-30T05:21:18.371Z,17.95
2022-08-30T05:24:02.365Z,17.97
2022-08-30T05:26:36.219Z,18.00
2022-08-30T05:29:08.440Z,18.08
2022-08-30T05:31:42.110Z,18.12
2022-08-30T05:34:14.086Z,18.22
2022-08-30T05:36:46.250Z,18.39
2022-08-30T05:39:18.117Z,18.60
2022-08-30T05:41:53.792Z,18.82
2022-08-30T05:44:34.260Z,19.09
2022-08-30T05:47:06.434Z,19.23
2022-08-30T05:49:38.339Z,19.35
2022-08-30T05:52:11.108Z,19.57
2022-08-30T05:54:43.060Z,19.69
2022-08-30T05:57:16.531Z,19.64
2022-08-30T05:59:48.931Z,19.57
2022-08-30T06:02:20.951Z,19.54
2022-08-30T06:04:53.891Z,19.67
2022-08-30T06:07:27.054Z,19.83
2022-08-30T06:09:59.252Z,20.00
2022-08-30T06:12:32.358Z,20.20
2022-08-30T06:15:05.652Z,20.25
2022-08-30T06:17:40.220Z,20.31
2022-08-30T06:20:18.863Z,20.42
2022-08-30T06:22:51.472Z,20.44
2022-08-30T06:25:23.685Z,20.36
2022-08-30T06:27:56.677Z,20.26
2022-08-30T06:30:28.762Z,20.22
2022-08-30T06:33:01.172Z,20.13
2022-08-30T06:35:38.152Z,20.21
2022-08-30T06:38:14.201Z,20.25
2022-08-30T06:40:46.177Z,20.30
2022-08-30T06:43:19.169Z,20.32
2022-08-30T06:46:10.461Z,20.32
2022-08-30T06:48:58.577Z,20.26
2022-08-30T06:51:34.954Z,20.16
2022-08-30T06:54:10.888Z,20.19
2022-08-30T06:56:58.123Z,20.21
2022-08-30T07:04:01.227Z,20.31
2022-08-30T07:06:34.167Z,20.49
2022-08-30T07:09:06.502Z,20.73
2022-08-30T07:11:40.685Z,20.89
2022-08-30T07:14:12.513Z,21.07
2022-08-30T07:16:44.902Z,21.25
2022-08-30T07:19:21.079Z,21.28
2022-08-30T07:21:54.362Z,21.32
2022-08-30T07:24:26.390Z,21.37
2022-08-30T07:26:58.272Z,21.34
2022-08-30T07:29:30.215Z,21.40
2022-08-30T07:32:02.911Z,21.47
2022-08-30T07:34:34.873Z,21.39
2022-08-30T07:37:06.741Z,21.31
2022-08-30T07:39:41.761Z,21.27
2022-08-30T07:42:19.129Z,21.26
2022-08-30T07:44:53.663Z,21.31
2022-08-30T07:47:28.757Z,21.40
2022-08-30T07:50:02.118Z,21.48
2022-08-30T07:52:34.421Z,21.52
2022-08-30T07:55:07.685Z,21.64
2022-08-30T07:57:39.689Z,21.69
2022-08-30T08:00:13.385Z,21.65
2022-08-30T08:02:46.499Z,21.53
2022-08-30T08:05:21.985Z,21.53
2022-08-30T08:07:56.260Z,21.65
2022-08-30T08:10:28.123Z,21.82
2022-08-30T08:13:01.006Z,22.03
2022-08-30T08:15:33.111Z,22.22
2022-08-30T08:18:05.095Z,22.25
2022-08-30T08:20:37.539Z,22.33
2022-08-30T08:23:10.572Z,22.50
2022-08-30T08:25:43.604Z,22.48
2022-08-30T08:28:16.014Z,22.36
2022-08-30T08:30:48.532Z,22.23
2022-08-30T08:33:20.962Z,22.14
2022-08-30T08:35:52.891Z,22.11
2022-08-30T08:38:24.803Z,22.02
2022-08-30T08:41:05.189Z,21.92
2022-08-30T08:43:39.781Z,21.85
2022-08-30T08:46:22.872Z,21.77
2022-08-30T08:49:00.528Z,21.66
2022-08-30T08:51:53.471Z,21.64
2022-08-30T08:54:32.257Z,21.65
2022-08-30T08:57:04.641Z,21.69
2022-08-30T08:59:36.480Z,21.86
2022-08-30T09:02:27.803Z,21.99
2022-08-30T09:05:03.690Z,22.09
2022-08-30T09:07:41.677Z,22.20
2022-08-30T09:10:22.996Z,22.40
2022-08-30T09:13:02.821Z,22.59
2022-08-30T09:15:37.034Z,22.65
2022-08-30T09:18:19.092Z,22.70
2022-08-30T09:20:55.013Z,22.75
2022-08-30T09:23:32.342Z,22.80
2022-08-30T09:26:06.612Z,22.91
2022-08-30T09:28:49.586Z,22.94
2022-08-30T09:31:28.482Z,22.97
2022-08-30T09:34:05.363Z,22.93
2022-08-30T09:36:41.977Z,22.89
2022-08-30T09:39:20.770Z,22.97
2022-08-30T09:41:57.285Z,23.12
2022-08-30T09:44:38.142Z,23.25
2022-08-30T09:47:26.028Z,23.20
2022-08-30T09:50:09.935Z,23.18
2022-08-30T09:52:55.606Z,23.14
2022-08-30T09:55:55.899Z,23.15
2022-08-30T09:58:43.024Z,23.26
2022-08-30T10:01:22.827Z,23.26
2022-08-30T10:04:02.640Z,23.33
2022-08-30T10:06:39.790Z,23.38
2022-08-30T10:09:27.882Z,23.53
2022-08-30T10:12:12.346Z,23.93
2022-08-30T10:15:03.955Z,24.14
2022-08-30T10:17:48.794Z,24.28
2022-08-30T10:20:32.884Z,24.19
2022-08-30T10:23:10.541Z,24.17
2022-08-30T10:25:46.847Z,24.19
2022-08-30T10:28:29.026Z,24.35
2022-08-30T10:31:05.040Z,24.46
2022-08-30T10:33:43.498Z,24.42
2022-08-30T10:36:19.047Z,24.52
2022-08-30T10:38:54.804Z,24.63
2022-08-30T10:41:37.339Z,24.63
2022-08-30T10:44:14.735Z,24.53
2022-08-30T10:47:00.621Z,24.58
2022-08-30T10:49:40.428Z,24.48
2022-08-30T10:52:25.586Z,24.46
2022-08-30T10:55:02.881Z,24.49
2022-08-30T10:57:36.759Z,24.47
2022-08-30T11:00:14.690Z,24.40
2022-08-30T11:03:26.640Z,24.42
2022-08-30T11:06:22.941Z,24.53
2022-08-30T11:09:26.668Z,24.24
2022-08-30T11:12:17.136Z,24.08
2022-08-30T11:14:50.527Z,23.95
2022-08-30T11:17:32.510Z,23.94
2022-08-30T11:20:24.165Z,23.96
2022-08-30T11:23:25.842Z,24.12
2022-08-30T11:26:01.974Z,24.18
2022-08-30T11:29:08.751Z,24.17
2022-08-30T11:31:44.625Z,24.30
2022-08-30T11:34:54.377Z,24.28
2022-08-30T11:37:43.301Z,24.25
2022-08-30T11:40:49.494Z,24.18
2022-08-30T11:43:53.144Z,24.22
2022-08-30T11:46:39.504Z,24.40
2022-08-30T11:52:37.131Z,24.54
2022-08-30T11:55:38.844Z,24.41
2022-08-30T11:58:26.062Z,24.51
2022-08-30T12:01:49.686Z,24.45
2022-08-30T12:04:44.628Z,24.34
2022-08-30T12:07:53.550Z,24.22
2022-08-30T12:10:37.683Z,24.06
2022-08-30T12:13:10.781Z,23.76
2022-08-30T12:15:59.560Z,23.52
2022-08-30T12:18:40.794Z,23.41
2022-08-30T12:21:31.237Z,23.25
2022-08-30T12:24:24.625Z,23.12
2022-08-30T12:26:58.401Z,23.10
2022-08-30T12:29:32.484Z,23.03
2022-08-30T12:32:17.688Z,22.98
2022-08-30T12:34:55.163Z,23.03
2022-08-30T12:37:29.669Z,23.19
2022-08-30T12:40:10.201Z,23.24
2022-08-30T12:42:50.184Z,23.07
2022-08-30T12:45:27.100Z,23.10
2022-08-30T12:48:01.833Z,23.08
2022-08-30T12:50:37.765Z,22.94
2022-08-30T12:53:14.071Z,22.95
2022-08-30T12:55:58.063Z,23.06
2022-08-30T12:58:43.619Z,23.10
2022-08-30T13:01:27.218Z,23.01
2022-08-30T13:04:03.677Z,22.95
2022-08-30T13:06:45.049Z,22.89
2022-08-30T13:09:32.644Z,22.77
2022-08-30T13:12:07.241Z,22.78
2022-08-30T13:14:43.641Z,22.90
2022-08-30T13:17:25.801Z,23.05
2022-08-30T13:20:15.163Z,23.20
2022-08-30T13:23:06.501Z,23.26
2022-08-30T13:25:40.245Z,23.32
2022-08-30T13:28:12.400Z,23.19
2022-08-30T13:30:46.825Z,22.98
2022-08-30T13:33:19.218Z,22.77
2022-08-30T13:35:51.122Z,22.91
2022-08-30T13:38:23.065Z,23.03
2022-08-30T13:40:56.517Z,23.19
2022-08-30T13:43:28.804Z,23.27
2022-08-30T13:46:23.230Z,23.50
2022-08-30T13:49:01.364Z,23.41
2022-08-30T13:51:34.916Z,23.32
2022-08-30T13:54:07.259Z,23.26
2022-08-30T13:56:39.204Z,23.28
2022-08-30T13:59:11.037Z,23.24
2022-08-30T14:04:35.865Z,22.96
2022-08-30T14:07:14.059Z,22.93
2022-08-30T14:09:47.356Z,22.89
2022-08-30T14:12:52.391Z,22.87
2022-08-30T14:15:12.941Z,22.72
2022-08-30T14:17:45.033Z,22.64
2022-08-30T14:20:18.201Z,22.74
2022-08-30T14:22:50.058Z,22.83
2022-08-30T14:25:22.408Z,22.81
2022-08-30T14:27:54.279Z,22.90
2022-08-30T14:30:27.039Z,22.94
2022-08-30T14:32:59.015Z,22.74
2022-08-30T14:35:31.144Z,22.45
2022-08-30T14:38:03.714Z,22.32
2022-08-30T14:40:35.678Z,22.37
2022-08-30T14:43:08.762Z,22.43
2022-08-30T14:45:41.755Z,22.54
2022-08-30T14:48:15.414Z,22.68
2022-08-30T14:50:47.373Z,22.74
2022-08-30T14:53:19.305Z,22.78
2022-08-30T14:55:51.116Z,22.83
2022-08-30T14:58:22.993Z,22.84
2022-08-30T15:00:55.406Z,22.72
2022-08-30T15:03:27.708Z,22.60
2022-08-30T15:05:59.549Z,22.47
2022-08-30T15:08:31.530Z,22.39
2022-08-30T15:11:07.717Z,22.31
2022-08-30T15:13:40.427Z,22.14
2022-08-30T15:16:18.099Z,22.15
2022-08-30T15:18:51.143Z,22.33
2022-08-30T15:21:28.473Z,22.53
2022-08-30T15:24:01.511Z,22.73
2022-08-30T15:26:33.399Z,22.77
2022-08-30T15:29:05.261Z,22.76
2022-08-30T15:31:38.693Z,22.70
2022-08-30T15:34:12.874Z,22.67
2022-08-30T15:36:46.225Z,22.67
2022-08-30T15:39:19.136Z,22.65
2022-08-30T15:41:57.069Z,22.65
2022-08-30T15:44:29.857Z,22.52
2022-08-30T15:47:02.269Z,22.41
2022-08-30T15:49:34.403Z,22.30
2022-08-30T15:52:08.085Z,22.26
2022-08-30T15:54:40.456Z,22.24
2022-08-30T15:57:12.449Z,22.26
2022-08-30T15:59:44.255Z,22.27
2022-08-30T16:02:16.790Z,22.21
2022-08-30T16:04:48.940Z,22.16
2022-08-30T16:07:24.682Z,22.11
2022-08-30T16:09:57.878Z,22.06
2022-08-30T16:12:30.159Z,21.95
2022-08-30T16:15:02.762Z,21.89
2022-08-30T16:17:35.895Z,21.88
2022-08-30T16:20:20.876Z,21.86
2022-08-30T16:22:52.857Z,21.76
2022-08-30T16:25:25.112Z,21.69
2022-08-30T16:28:12.396Z,21.57
2022-08-30T16:30:45.872Z,21.46
2022-08-30T16:33:18.395Z,21.29
2022-08-30T16:35:53.155Z,21.13
2022-08-30T16:38:26.902Z,20.99
2022-08-30T16:41:01.225Z,20.95
2022-08-30T16:43:35.079Z,20.88
2022-08-30T16:46:09.059Z,20.78
2022-08-30T16:48:44.867Z,20.71
2022-08-30T16:51:21.065Z,20.66
2022-08-30T16:53:54.925Z,20.63
2022-08-30T16:56:29.552Z,20.61
2022-08-30T17:01:55.780Z,20.57
2022-08-30T17:04:27.670Z,20.55
2022-08-30T17:06:59.509Z,20.53
2022-08-30T17:09:31.483Z,20.50
2022-08-30T17:12:04.308Z,20.46
2022-08-30T17:14:36.332Z,20.40
2022-08-30T17:17:08.976Z,20.34
2022-08-30T17:19:43.087Z,20.31
2022-08-30T17:22:16.029Z,20.28
2022-08-30T17:24:47.891Z,20.21
2022-08-30T17:27:21.079Z,20.14
2022-08-30T17:29:53.258Z,20.11
2022-08-30T17:32:25.320Z,20.09
2022-08-30T17:34:57.263Z,20.05
2022-08-30T17:37:29.330Z,20.00
2022-08-30T17:40:02.192Z,19.94
2022-08-30T17:42:37.522Z,19.90
2022-08-30T17:45:13.951Z,19.89
2022-08-30T17:47:45.982Z,19.90
2022-08-30T17:50:19.450Z,19.86
2022-08-30T17:52:51.567Z,19.80
2022-08-30T17:55:23.571Z,19.77
2022-08-30T17:57:56.373Z,19.75
2022-08-30T18:00:32.723Z,19.73
2022-08-30T18:03:04.986Z,19.72
2022-08-30T18:08:30.169Z,19.66
2022-08-30T18:11:02.047Z,19.62
2022-08-30T18:13:34.271Z,19.59
2022-08-30T18:16:07.415Z,19.56
2022-08-30T18:18:39.687Z,19.54
2022-08-30T18:21:17.391Z,19.51
2022-08-30T18:23:50.252Z,19.51
2022-08-30T18:26:24.100Z,19.48
2022-08-30T18:28:56.681Z,19.43
2022-08-30T18:31:28.837Z,19.43
2022-08-30T18:34:01.666Z,19.41
2022-08-30T18:36:34.198Z,19.37
2022-08-30T18:39:06.390Z,19.35
2022-08-30T18:41:43.126Z,19.33
2022-08-30T18:44:27.660Z,19.30
2022-08-30T18:47:03.632Z,19.30
2022-08-30T18:49:37.419Z,19.25
2022-08-30T18:52:10.990Z,19.25
2022-08-30T18:54:52.741Z,19.26
2022-08-30T18:57:25.170Z,19.25
2022-08-30T18:59:57.152Z,19.20
2022-08-30T19:02:29.090Z,19.16
2022-08-30T19:05:01.225Z,19.13
2022-08-30T19:07:34.392Z,19.09
2022-08-30T19:10:20.936Z,19.06
2022-08-30T19:12:53.384Z,19.07
2022-08-30T19:15:25.667Z,19.05
2022-08-30T19:17:58.405Z,19.03
2022-08-30T19:20:31.655Z,19.01
2022-08-30T19:23:09.898Z,19.00
2022-08-30T19:25:43.994Z,18.99
2022-08-30T19:28:16.407Z,18.96
2022-08-30T19:30:49.159Z,18.93
2022-08-30T19:33:21.457Z,18.94
2022-08-30T19:35:53.748Z,18.94
2022-08-30T19:38:25.890Z,18.92
2022-08-30T19:41:03.851Z,18.90
2022-08-30T19:43:35.687Z,18.89
2022-08-30T19:46:07.962Z,18.89
2022-08-30T19:48:43.160Z,18.83
2022-08-30T19:51:17.155Z,18.79
2022-08-30T19:53:48.953Z,18.74
2022-08-30T19:56:20.807Z,18.71
2022-08-30T19:58:54.625Z,18.68
2022-08-30T20:01:33.597Z,18.64
2022-08-30T20:04:06.482Z,18.58
2022-08-30T20:06:38.607Z,18.54
2022-08-30T20:09:10.704Z,18.51
2022-08-30T20:11:44.450Z,18.47
2022-08-30T20:14:17.695Z,18.46
2022-08-30T20:16:51.474Z,18.43
2022-08-30T20:19:27.612Z,18.37
2022-08-30T20:22:07.707Z,18.34
2022-08-30T20:24:23.475Z,20.59
2022-08-30T20:24:26.867Z,19.68
2022-08-30T20:24:43.770Z,18.30
2022-08-30T20:27:16.056Z,18.25
2022-08-30T20:29:47.905Z,18.19
2022-08-30T20:32:20.471Z,18.11
2022-08-30T20:34:53.323Z,18.03
2022-08-30T20:37:25.206Z,17.97
2022-08-30T20:40:00.365Z,17.87
2022-08-30T20:42:33.552Z,17.76
2022-08-30T20:45:07.186Z,17.67
2022-08-30T20:47:40.335Z,17.62
2022-08-30T20:50:18.210Z,17.57
2022-08-30T20:52:50.240Z,17.52
2022-08-30T20:55:22.364Z,17.45
2022-08-30T20:57:55.085Z,17.39
2022-08-30T21:00:27.574Z,17.35
2022-08-30T21:03:00.493Z,17.31
2022-08-30T21:05:32.767Z,17.26
2022-08-30T21:08:10.013Z,17.21
2022-08-30T21:10:42.395Z,17.16
2022-08-30T21:13:14.306Z,17.13
2022-08-30T21:15:46.430Z,17.09
2022-08-30T21:18:18.448Z,17.06
2022-08-30T21:20:50.428Z,17.03
2022-08-30T21:23:22.287Z,17.01
2022-08-30T21:25:54.152Z,16.99
2022-08-30T21:28:26.056Z,16.99
2022-08-30T21:31:11.171Z,16.97
2022-08-30T21:33:43.629Z,16.96
2022-08-30T21:36:33.430Z,16.96
2022-08-30T21:39:06.260Z,16.94
2022-08-30T21:41:39.031Z,16.87
2022-08-30T21:44:13.148Z,16.84
2022-08-30T21:46:46.127Z,16.81
2022-08-30T21:49:20.766Z,16.75
2022-08-30T21:51:53.753Z,16.73
2022-08-30T21:54:31.223Z,16.71
2022-08-30T21:57:07.131Z,16.61
2022-08-30T21:59:39.135Z,16.52
2022-08-30T22:02:12.272Z,16.47
2022-08-30T22:04:44.498Z,16.46
2022-08-30T22:07:16.528Z,16.43
2022-08-30T22:09:48.407Z,16.41
2022-08-30T22:12:20.189Z,16.41
2022-08-30T22:14:53.216Z,16.43
2022-08-30T22:17:25.601Z,16.42
2022-08-30T22:19:57.449Z,16.42
2022-08-30T22:22:29.463Z,16.39
2022-08-30T22:25:02.158Z,16.33
2022-08-30T22:27:34.736Z,16.28
2022-08-30T22:30:12.566Z,16.23
2022-08-30T22:32:44.400Z,16.23
2022-08-30T22:35:17.357Z,16.23
2022-08-30T22:37:53.416Z,16.17
2022-08-30T22:40:28.276Z,16.12
2022-08-30T22:43:05.275Z,16.04
2022-08-30T22:45:42.784Z,15.97
2022-08-30T22:48:15.057Z,15.92
2022-08-30T22:50:49.901Z,15.86
2022-08-30T22:53:21.901Z,15.82
2022-08-30T22:55:53.744Z,15.79
2022-08-30T22:58:26.119Z,15.77
2022-08-30T23:01:01.227Z,15.78
2022-08-30T23:03:35.265Z,15.75
2022-08-30T23:06:07.525Z,15.73
2022-08-30T23:08:39.738Z,15.71
2022-08-30T23:11:13.001Z,15.68
2022-08-30T23:13:45.226Z,15.60
2022-08-30T23:16:18.567Z,15.50
2022-08-30T23:18:51.026Z,15.43
2022-08-30T23:21:27.050Z,15.36
2022-08-30T23:24:17.595Z,15.30
2022-08-30T23:27:07.402Z,15.21
2022-08-30T23:29:57.133Z,15.15
2022-08-30T23:32:46.607Z,15.09
2022-08-30T23:35:35.969Z,15.07
2022-08-30T23:38:26.182Z,15.03
2022-08-30T23:41:15.970Z,15.00
2022-08-30T23:44:06.140Z,15.00
2022-08-30T23:46:57.132Z,15.01
2022-08-30T23:52:34.034Z,15.09
2022-08-30T23:55:21.875Z,15.08
2022-08-30T23:58:11.467Z,15.08
